sensor_id;sensor_type;location;lat;lon;timestamp;pressure;altitude;pressure_sealevel;temperature;humidity
61109;BME280;46995;55.740;37.402;2023-06-14T00:01:06;99876.44;;;12.74;60.09
61109;BME280;46995;55.740;37.402;2023-06-14T00:03:33;99855.88;;;12.57;60.06
61109;BME280;46995;55.740;37.402;2023-06-14T00:05:59;99851.72;;;12.55;60.17
61109;BME280;46995;55.740;37.402;2023-06-14T00:08:25;99860.22;;;12.58;60.48
61109;BME280;46995;55.740;37.402;2023-06-14T00:10:51;99852.69;;;12.54;60.48
61109;BME280;46995;55.740;37.402;2023-06-14T00:13:18;99822.25;;;12.29;60.48
61109;BME280;46995;55.740;37.402;2023-06-14T00:15:44;99861.03;;;12.49;60.67
61109;BME280;46995;55.740;37.402;2023-06-14T00:18:10;99868.69;;;12.52;60.67
61109;BME280;46995;55.740;37.402;2023-06-14T00:20:37;99878.63;;;12.50;61.08
61109;BME280;46995;55.740;37.402;2023-06-14T00:23:03;99857.78;;;12.36;61.07
61109;BME280;46995;55.740;37.402;2023-06-14T00:25:29;99848.72;;;12.29;61.00
61109;BME280;46995;55.740;37.402;2023-06-14T00:27:56;99876.91;;;12.40;61.18
61109;BME280;46995;55.740;37.402;2023-06-14T00:30:21;99866.25;;;12.30;60.94
61109;BME280;46995;55.740;37.402;2023-06-14T00:32:48;99859.84;;;12.23;61.17
61109;BME280;46995;55.740;37.402;2023-06-14T00:35:15;99885.81;;;12.29;61.20
61109;BME280;46995;55.740;37.402;2023-06-14T00:37:41;99858.13;;;12.12;61.35
61109;BME280;46995;55.740;37.402;2023-06-14T00:40:08;99865.97;;;12.14;61.65
61109;BME280;46995;55.740;37.402;2023-06-14T00:42:33;99847.38;;;12.04;61.84
61109;BME280;46995;55.740;37.402;2023-06-14T00:45:00;99876.28;;;12.17;62.13
61109;BME280;46995;55.740;37.402;2023-06-14T00:47:26;99864.69;;;12.08;62.06
61109;BME280;46995;55.740;37.402;2023-06-14T00:49:56;99861.44;;;12.05;62.57
61109;BME280;46995;55.740;37.402;2023-06-14T00:52:23;99883.50;;;12.15;62.33
61109;BME280;46995;55.740;37.402;2023-06-14T00:54:51;99863.09;;;11.96;62.16
61109;BME280;46995;55.740;37.402;2023-06-14T00:57:17;99864.38;;;12.02;62.40
61109;BME280;46995;55.740;37.402;2023-06-14T00:59:46;99866.75;;;12.05;62.89
61109;BME280;46995;55.740;37.402;2023-06-14T01:02:13;99884.31;;;12.06;62.69
61109;BME280;46995;55.740;37.402;2023-06-14T01:04:45;99857.59;;;11.88;62.86
61109;BME280;46995;55.740;37.402;2023-06-14T01:07:49;99879.28;;;12.03;63.17
61109;BME280;46995;55.740;37.402;2023-06-14T01:11:16;99847.41;;;11.83;63.34
61109;BME280;46995;55.740;37.402;2023-06-14T01:13:42;99874.50;;;11.97;62.86
61109;BME280;46995;55.740;37.402;2023-06-14T01:16:08;99853.25;;;11.77;62.81
61109;BME280;46995;55.740;37.402;2023-06-14T01:18:35;99872.84;;;11.96;62.37
61109;BME280;46995;55.740;37.402;2023-06-14T01:21:02;99867.09;;;11.91;62.80
61109;BME280;46995;55.740;37.402;2023-06-14T01:23:32;99832.38;;;11.63;63.12
61109;BME280;46995;55.740;37.402;2023-06-14T01:26:00;99873.34;;;11.89;63.41
61109;BME280;46995;55.740;37.402;2023-06-14T01:28:31;99845.09;;;11.69;63.29
61109;BME280;46995;55.740;37.402;2023-06-14T01:31:02;99845.81;;;11.71;63.80
61109;BME280;46995;55.740;37.402;2023-06-14T01:33:32;99863.84;;;11.77;63.89
61109;BME280;46995;55.740;37.402;2023-06-14T01:35:59;99854.28;;;11.65;63.90
61109;BME280;46995;55.740;37.402;2023-06-14T01:38:30;99828.41;;;11.48;63.86
61109;BME280;46995;55.740;37.402;2023-06-14T01:40:59;99869.50;;;11.73;63.99
61109;BME280;46995;55.740;37.402;2023-06-14T01:43:26;99891.72;;;11.81;63.72
61109;BME280;46995;55.740;37.402;2023-06-14T01:46:03;99829.75;;;11.42;64.13
61109;BME280;46995;55.740;37.402;2023-06-14T01:49:06;99833.00;;;11.46;63.97
61109;BME280;46995;55.740;37.402;2023-06-14T01:51:32;99826.88;;;11.45;63.83
61109;BME280;46995;55.740;37.402;2023-06-14T01:53:58;99890.03;;;11.80;64.10
61109;BME280;46995;55.740;37.402;2023-06-14T01:56:25;99872.41;;;11.70;64.04
61109;BME280;46995;55.740;37.402;2023-06-14T01:58:52;99893.84;;;11.87;64.05
61109;BME280;46995;55.740;37.402;2023-06-14T02:01:20;99881.13;;;11.81;64.22
61109;BME280;46995;55.740;37.402;2023-06-14T02:03:47;99865.50;;;11.78;64.33
61109;BME280;46995;55.740;37.402;2023-06-14T02:06:16;99840.31;;;11.63;64.34
61109;BME280;46995;55.740;37.402;2023-06-14T02:08:42;99852.06;;;11.70;64.35
61109;BME280;46995;55.740;37.402;2023-06-14T02:11:08;99784.75;;;11.33;64.53
61109;BME280;46995;55.740;37.402;2023-06-14T02:13:35;99844.97;;;11.71;64.73
61109;BME280;46995;55.740;37.402;2023-06-14T02:16:01;99829.50;;;11.66;64.75
61109;BME280;46995;55.740;37.402;2023-06-14T02:18:29;99823.38;;;11.66;64.70
61109;BME280;46995;55.740;37.402;2023-06-14T02:21:15;99862.09;;;11.87;64.72
61109;BME280;46995;55.740;37.402;2023-06-14T02:23:41;99837.63;;;11.74;64.82
61109;BME280;46995;55.740;37.402;2023-06-14T02:26:07;99880.25;;;12.02;64.73
61109;BME280;46995;55.740;37.402;2023-06-14T02:28:38;99832.34;;;11.74;65.43
61109;BME280;46995;55.740;37.402;2023-06-14T02:31:04;99839.75;;;11.80;65.23
61109;BME280;46995;55.740;37.402;2023-06-14T02:33:33;99833.50;;;11.81;64.82
61109;BME280;46995;55.740;37.402;2023-06-14T02:36:02;99868.16;;;12.09;65.31
61109;BME280;46995;55.740;37.402;2023-06-14T02:38:28;99843.00;;;11.94;65.15
61109;BME280;46995;55.740;37.402;2023-06-14T02:40:54;99867.91;;;12.12;64.99
61109;BME280;46995;55.740;37.402;2023-06-14T02:43:20;99890.09;;;12.30;65.09
61109;BME280;46995;55.740;37.402;2023-06-14T02:45:46;99851.03;;;12.13;65.04
61109;BME280;46995;55.740;37.402;2023-06-14T02:48:13;99852.03;;;12.21;64.84
61109;BME280;46995;55.740;37.402;2023-06-14T02:50:40;99880.25;;;12.51;64.84
61109;BME280;46995;55.740;37.402;2023-06-14T02:53:08;99883.94;;;12.60;64.70
61109;BME280;46995;55.740;37.402;2023-06-14T02:55:33;99872.22;;;12.62;64.22
61109;BME280;46995;55.740;37.402;2023-06-14T02:58:06;99869.44;;;12.73;64.18
61109;BME280;46995;55.740;37.402;2023-06-14T03:00:33;99863.47;;;12.81;64.47
61109;BME280;46995;55.740;37.402;2023-06-14T03:03:00;99868.91;;;12.89;64.26
61109;BME280;46995;55.740;37.402;2023-06-14T03:05:27;99863.19;;;12.94;64.05
61109;BME280;46995;55.740;37.402;2023-06-14T03:07:54;99894.34;;;13.21;63.74
61109;BME280;46995;55.740;37.402;2023-06-14T03:10:20;99872.16;;;13.22;63.48
61109;BME280;46995;55.740;37.402;2023-06-14T03:12:48;99884.53;;;13.40;63.46
61109;BME280;46995;55.740;37.402;2023-06-14T03:15:15;99894.03;;;13.62;62.80
61109;BME280;46995;55.740;37.402;2023-06-14T03:17:46;99884.66;;;13.68;62.31
61109;BME280;46995;55.740;37.402;2023-06-14T03:20:16;99892.59;;;13.87;62.04
61109;BME280;46995;55.740;37.402;2023-06-14T03:22:42;99891.00;;;13.94;61.70
61109;BME280;46995;55.740;37.402;2023-06-14T03:25:11;99878.56;;;13.94;60.89
61109;BME280;46995;55.740;37.402;2023-06-14T03:27:40;99864.84;;;13.99;60.59
61109;BME280;46995;55.740;37.402;2023-06-14T03:30:06;99883.78;;;14.23;60.85
61109;BME280;46995;55.740;37.402;2023-06-14T03:32:34;99901.34;;;14.44;60.15
61109;BME280;46995;55.740;37.402;2023-06-14T03:35:00;99861.34;;;14.35;59.90
61109;BME280;46995;55.740;37.402;2023-06-14T03:37:26;99890.28;;;14.66;59.88
61109;BME280;46995;55.740;37.402;2023-06-14T03:39:52;99859.28;;;14.57;59.40
61109;BME280;46995;55.740;37.402;2023-06-14T03:42:21;99876.78;;;14.77;58.79
61109;BME280;46995;55.740;37.402;2023-06-14T03:44:48;99883.25;;;14.92;58.63
61109;BME280;46995;55.740;37.402;2023-06-14T03:47:15;99864.34;;;14.95;57.65
61109;BME280;46995;55.740;37.402;2023-06-14T03:49:41;99887.16;;;15.15;56.83
61109;BME280;46995;55.740;37.402;2023-06-14T03:52:07;99860.84;;;15.12;56.81
61109;BME280;46995;55.740;37.402;2023-06-14T03:54:36;99875.94;;;15.30;56.36
61109;BME280;46995;55.740;37.402;2023-06-14T03:57:02;99877.69;;;15.39;56.71
61109;BME280;46995;55.740;37.402;2023-06-14T03:59:28;99876.78;;;15.48;56.23
61109;BME280;46995;55.740;37.402;2023-06-14T04:01:54;99876.19;;;15.54;56.41
61109;BME280;46995;55.740;37.402;2023-06-14T04:04:24;99882.44;;;15.71;55.87
61109;BME280;46995;55.740;37.402;2023-06-14T04:06:58;99898.34;;;15.80;55.33
61109;BME280;46995;55.740;37.402;2023-06-14T04:09:26;99877.03;;;15.80;55.82
61109;BME280;46995;55.740;37.402;2023-06-14T04:11:52;99844.97;;;15.64;55.59
61109;BME280;46995;55.740;37.402;2023-06-14T04:14:19;99887.97;;;16.03;55.46
61109;BME280;46995;55.740;37.402;2023-06-14T04:16:46;99865.47;;;15.97;55.55
61109;BME280;46995;55.740;37.402;2023-06-14T04:19:13;99890.06;;;16.17;55.13
61109;BME280;46995;55.740;37.402;2023-06-14T04:21:40;99876.53;;;16.10;54.40
61109;BME280;46995;55.740;37.402;2023-06-14T04:24:11;99829.97;;;15.89;53.91
61109;BME280;46995;55.740;37.402;2023-06-14T04:26:42;99860.59;;;16.19;53.28
61109;BME280;46995;55.740;37.402;2023-06-14T04:29:11;99891.00;;;16.42;53.30
61109;BME280;46995;55.740;37.402;2023-06-14T04:31:42;99882.38;;;16.48;52.88
61109;BME280;46995;55.740;37.402;2023-06-14T04:34:10;99837.47;;;16.27;52.99
61109;BME280;46995;55.740;37.402;2023-06-14T04:36:43;99855.03;;;16.46;52.99
61109;BME280;46995;55.740;37.402;2023-06-14T04:39:16;99880.16;;;16.69;52.94
61109;BME280;46995;55.740;37.402;2023-06-14T04:41:44;99862.78;;;16.65;52.81
61109;BME280;46995;55.740;37.402;2023-06-14T04:44:11;99847.41;;;16.59;52.52
61109;BME280;46995;55.740;37.402;2023-06-14T04:46:42;99879.84;;;16.88;52.92
61109;BME280;46995;55.740;37.402;2023-06-14T04:49:22;99882.50;;;16.97;52.61
61109;BME280;46995;55.740;37.402;2023-06-14T04:51:56;99846.31;;;16.78;52.12
61109;BME280;46995;55.740;37.402;2023-06-14T04:54:34;99865.50;;;16.98;52.02
61109;BME280;46995;55.740;37.402;2023-06-14T04:57:05;99838.84;;;16.89;51.45
61109;BME280;46995;55.740;37.402;2023-06-14T04:59:32;99856.16;;;17.02;51.73
61109;BME280;46995;55.740;37.402;2023-06-14T05:01:59;99885.22;;;17.29;51.21
61109;BME280;46995;55.740;37.402;2023-06-14T05:04:25;99866.53;;;17.29;50.86
61109;BME280;46995;55.740;37.402;2023-06-14T05:06:52;99841.16;;;17.17;50.33
61109;BME280;46995;55.740;37.402;2023-06-14T05:09:21;99844.34;;;17.28;50.08
61109;BME280;46995;55.740;37.402;2023-06-14T05:11:47;99862.38;;;17.43;49.75
61109;BME280;46995;55.740;37.402;2023-06-14T05:14:14;99843.38;;;17.38;49.42
61109;BME280;46995;55.740;37.402;2023-06-14T05:16:40;99856.88;;;17.52;49.11
61109;BME280;46995;55.740;37.402;2023-06-14T05:19:06;99885.25;;;17.77;48.94
61109;BME280;46995;55.740;37.402;2023-06-14T05:21:32;99865.22;;;17.73;48.57
61109;BME280;46995;55.740;37.402;2023-06-14T05:24:00;99860.53;;;17.84;47.75
61109;BME280;46995;55.740;37.402;2023-06-14T05:26:26;99870.34;;;17.99;47.73
61109;BME280;46995;55.740;37.402;2023-06-14T05:28:57;99850.78;;;17.91;47.12
61109;BME280;46995;55.740;37.402;2023-06-14T05:31:24;99876.13;;;18.11;47.54
61109;BME280;46995;55.740;37.402;2023-06-14T05:33:52;99847.44;;;17.97;47.76
61109;BME280;46995;55.740;37.402;2023-06-14T05:36:18;99878.06;;;18.33;47.16
61109;BME280;46995;55.740;37.402;2023-06-14T05:38:45;99839.72;;;18.10;46.91
61109;BME280;46995;55.740;37.402;2023-06-14T05:41:11;99825.53;;;18.01;46.98
61109;BME280;46995;55.740;37.402;2023-06-14T05:43:38;99858.81;;;18.38;46.73
61109;BME280;46995;55.740;37.402;2023-06-14T05:46:04;99859.66;;;18.38;46.35
61109;BME280;46995;55.740;37.402;2023-06-14T05:48:32;99843.97;;;18.35;45.73
61109;BME280;46995;55.740;37.402;2023-06-14T05:51:00;99847.28;;;18.37;45.58
61109;BME280;46995;55.740;37.402;2023-06-14T05:53:26;99814.41;;;18.29;45.26
61109;BME280;46995;55.740;37.402;2023-06-14T05:55:55;99847.41;;;18.52;44.71
61109;BME280;46995;55.740;37.402;2023-06-14T05:58:21;99833.53;;;18.48;45.20
61109;BME280;46995;55.740;37.402;2023-06-14T06:00:47;99841.19;;;18.59;45.09
61109;BME280;46995;55.740;37.402;2023-06-14T06:03:13;99870.19;;;18.79;44.93
61109;BME280;46995;55.740;37.402;2023-06-14T06:05:39;99845.31;;;18.70;45.00
61109;BME280;46995;55.740;37.402;2023-06-14T06:08:05;99854.06;;;18.87;44.39
61109;BME280;46995;55.740;37.402;2023-06-14T06:10:31;99830.06;;;18.79;44.34
61109;BME280;46995;55.740;37.402;2023-06-14T06:12:57;99852.66;;;18.99;43.04
61109;BME280;46995;55.740;37.402;2023-06-14T06:15:23;99851.47;;;19.01;43.26
61109;BME280;46995;55.740;37.402;2023-06-14T06:17:49;99889.25;;;19.29;42.76
61109;BME280;46995;55.740;37.402;2023-06-14T06:20:16;99831.88;;;19.01;42.45
61109;BME280;46995;55.740;37.402;2023-06-14T06:22:43;99838.75;;;19.03;42.97
61109;BME280;46995;55.740;37.402;2023-06-14T06:25:10;99837.28;;;19.16;43.18
61109;BME280;46995;55.740;37.402;2023-06-14T06:27:36;99832.59;;;19.18;41.97
61109;BME280;46995;55.740;37.402;2023-06-14T06:30:03;99883.72;;;19.54;41.89
61109;BME280;46995;55.740;37.402;2023-06-14T06:32:30;99849.00;;;19.37;40.60
61109;BME280;46995;55.740;37.402;2023-06-14T06:34:56;99864.63;;;19.57;40.46
61109;BME280;46995;55.740;37.402;2023-06-14T06:37:28;99836.88;;;19.50;40.68
61109;BME280;46995;55.740;37.402;2023-06-14T06:39:54;99848.09;;;19.68;40.57
61109;BME280;46995;55.740;37.402;2023-06-14T06:42:21;99842.75;;;19.68;40.62
61109;BME280;46995;55.740;37.402;2023-06-14T06:44:49;99859.47;;;19.84;40.00
61109;BME280;46995;55.740;37.402;2023-06-14T06:47:15;99875.75;;;19.98;39.80
61109;BME280;46995;55.740;37.402;2023-06-14T06:49:43;99852.63;;;19.97;38.80
61109;BME280;46995;55.740;37.402;2023-06-14T06:52:09;99821.09;;;19.84;39.03
61109;BME280;46995;55.740;37.402;2023-06-14T06:54:36;99832.66;;;19.84;38.50
61109;BME280;46995;55.740;37.402;2023-06-14T06:57:02;99813.16;;;19.76;38.23
61109;BME280;46995;55.740;37.402;2023-06-14T06:59:29;99848.47;;;19.94;37.95
61109;BME280;46995;55.740;37.402;2023-06-14T07:01:55;99852.75;;;20.03;38.15
61109;BME280;46995;55.740;37.402;2023-06-14T07:04:21;99817.41;;;19.85;37.89
61109;BME280;46995;55.740;37.402;2023-06-14T07:06:47;99823.03;;;19.90;38.33
61109;BME280;46995;55.740;37.402;2023-06-14T07:09:13;99806.34;;;19.88;38.31
61109;BME280;46995;55.740;37.402;2023-06-14T07:11:43;99864.56;;;20.23;37.33
61109;BME280;46995;55.740;37.402;2023-06-14T07:14:09;99858.75;;;20.20;37.42
61109;BME280;46995;55.740;37.402;2023-06-14T07:16:35;99826.19;;;20.08;37.08
61109;BME280;46995;55.740;37.402;2023-06-14T07:19:02;99834.97;;;20.17;36.67
61109;BME280;46995;55.740;37.402;2023-06-14T07:21:28;99845.88;;;20.30;37.19
61109;BME280;46995;55.740;37.402;2023-06-14T07:23:54;99824.69;;;20.20;37.21
61109;BME280;46995;55.740;37.402;2023-06-14T07:26:20;99839.25;;;20.41;37.45
61109;BME280;46995;55.740;37.402;2023-06-14T07:28:47;99826.75;;;20.33;37.13
61109;BME280;46995;55.740;37.402;2023-06-14T07:31:15;99808.16;;;20.32;37.22
61109;BME280;46995;55.740;37.402;2023-06-14T07:33:42;99837.72;;;20.53;36.91
61109;BME280;46995;55.740;37.402;2023-06-14T07:36:08;99848.31;;;20.76;37.31
61109;BME280;46995;55.740;37.402;2023-06-14T07:38:34;99856.94;;;20.71;36.84
61109;BME280;46995;55.740;37.402;2023-06-14T07:41:03;99819.16;;;20.51;36.29
61109;BME280;46995;55.740;37.402;2023-06-14T07:43:35;99770.94;;;20.28;36.81
61109;BME280;46995;55.740;37.402;2023-06-14T07:46:01;99796.63;;;20.52;36.81
61109;BME280;46995;55.740;37.402;2023-06-14T07:48:28;99767.91;;;20.32;36.79
61109;BME280;46995;55.740;37.402;2023-06-14T07:50:54;99811.41;;;20.63;36.39
61109;BME280;46995;55.740;37.402;2023-06-14T07:53:20;99846.47;;;20.97;36.74
61109;BME280;46995;55.740;37.402;2023-06-14T07:55:46;99779.34;;;20.55;36.40
61109;BME280;46995;55.740;37.402;2023-06-14T07:58:13;99803.06;;;20.73;36.02
61109;BME280;46995;55.740;37.402;2023-06-14T08:00:38;99823.66;;;20.87;35.82
61109;BME280;46995;55.740;37.402;2023-06-14T08:03:04;99812.84;;;20.80;35.91
61109;BME280;46995;55.740;37.402;2023-06-14T08:05:30;99817.06;;;20.89;35.71
61109;BME280;46995;55.740;37.402;2023-06-14T08:07:56;99790.44;;;20.73;36.02
61109;BME280;46995;55.740;37.402;2023-06-14T08:10:23;99832.28;;;21.03;35.91
61109;BME280;46995;55.740;37.402;2023-06-14T08:12:49;99814.63;;;20.94;35.93
61109;BME280;46995;55.740;37.402;2023-06-14T08:15:17;99842.16;;;21.18;36.40
61109;BME280;46995;55.740;37.402;2023-06-14T08:17:44;99831.41;;;21.18;35.96
61109;BME280;46995;55.740;37.402;2023-06-14T08:20:13;99842.50;;;21.36;36.48
61109;BME280;46995;55.740;37.402;2023-06-14T08:22:43;99801.53;;;21.06;36.38
61109;BME280;46995;55.740;37.402;2023-06-14T08:25:09;99833.97;;;21.26;36.40
61109;BME280;46995;55.740;37.402;2023-06-14T08:27:38;99816.19;;;21.25;35.71
61109;BME280;46995;55.740;37.402;2023-06-14T08:30:05;99794.53;;;21.11;35.64
61109;BME280;46995;55.740;37.402;2023-06-14T08:32:34;99829.03;;;21.29;35.77
61109;BME280;46995;55.740;37.402;2023-06-14T08:35:01;99809.16;;;21.24;36.05
61109;BME280;46995;55.740;37.402;2023-06-14T08:37:30;99834.16;;;21.45;35.87
61109;BME280;46995;55.740;37.402;2023-06-14T08:39:56;99828.38;;;21.48;35.45
61109;BME280;46995;55.740;37.402;2023-06-14T08:42:24;99823.41;;;21.52;34.67
61109;BME280;46995;55.740;37.402;2023-06-14T08:44:50;99826.59;;;21.62;35.22
61109;BME280;46995;55.740;37.402;2023-06-14T08:47:17;99825.28;;;21.79;35.43
61109;BME280;46995;55.740;37.402;2023-06-14T08:49:47;99824.38;;;21.72;35.05
61109;BME280;46995;55.740;37.402;2023-06-14T08:52:15;99804.84;;;21.57;34.20
61109;BME280;46995;55.740;37.402;2023-06-14T08:54:45;99789.91;;;21.48;34.40
61109;BME280;46995;55.740;37.402;2023-06-14T08:57:14;99805.91;;;21.56;34.59
61109;BME280;46995;55.740;37.402;2023-06-14T08:59:47;99807.78;;;21.62;34.52
61109;BME280;46995;55.740;37.402;2023-06-14T09:02:15;99805.75;;;21.64;34.15
61109;BME280;46995;55.740;37.402;2023-06-14T09:04:45;99793.72;;;21.60;34.37
61109;BME280;46995;55.740;37.402;2023-06-14T09:07:12;99808.25;;;21.72;34.34
61109;BME280;46995;55.740;37.402;2023-06-14T09:09:40;99808.31;;;21.79;34.59
61109;BME280;46995;55.740;37.402;2023-06-14T09:12:10;99801.72;;;21.81;33.93
61109;BME280;46995;55.740;37.402;2023-06-14T09:14:37;99778.03;;;21.64;33.52
61109;BME280;46995;55.740;37.402;2023-06-14T09:17:06;99765.19;;;21.59;33.08
61109;BME280;46995;55.740;37.402;2023-06-14T09:19:34;99789.84;;;21.69;33.07
61109;BME280;46995;55.740;37.402;2023-06-14T09:22:00;99798.38;;;21.79;33.07
61109;BME280;46995;55.740;37.402;2023-06-14T09:24:26;99768.28;;;21.56;33.56
61109;BME280;46995;55.740;37.402;2023-06-14T09:26:53;99788.03;;;21.76;33.93
61109;BME280;46995;55.740;37.402;2023-06-14T09:29:19;99763.97;;;21.68;34.16
61109;BME280;46995;55.740;37.402;2023-06-14T09:31:46;99805.16;;;21.96;34.05
61109;BME280;46995;55.740;37.402;2023-06-14T09:34:12;99797.44;;;21.93;33.44
61109;BME280;46995;55.740;37.402;2023-06-14T09:36:39;99798.97;;;22.03;33.34
61109;BME280;46995;55.740;37.402;2023-06-14T09:39:06;99781.50;;;21.92;33.58
61109;BME280;46995;55.740;37.402;2023-06-14T09:41:38;99769.28;;;21.89;33.22
61109;BME280;46995;55.740;37.402;2023-06-14T09:44:09;99784.88;;;22.01;33.80
61109;BME280;46995;55.740;37.402;2023-06-14T09:46:36;99784.97;;;22.14;33.18
61109;BME280;46995;55.740;37.402;2023-06-14T09:49:03;99798.47;;;22.27;34.02
61109;BME280;46995;55.740;37.402;2023-06-14T09:51:29;99757.56;;;22.04;33.43
61109;BME280;46995;55.740;37.402;2023-06-14T09:54:01;99792.06;;;22.28;33.21
61109;BME280;46995;55.740;37.402;2023-06-14T09:56:45;99769.28;;;22.24;33.12
61109;BME280;46995;55.740;37.402;2023-06-14T09:59:12;99777.94;;;22.26;33.54
61109;BME280;46995;55.740;37.402;2023-06-14T10:01:43;99756.44;;;22.26;33.72
61109;BME280;46995;55.740;37.402;2023-06-14T10:04:10;99782.19;;;22.48;33.03
61109;BME280;46995;55.740;37.402;2023-06-14T10:06:37;99778.00;;;22.46;32.54
61109;BME280;46995;55.740;37.402;2023-06-14T10:09:08;99775.97;;;22.48;32.38
61109;BME280;46995;55.740;37.402;2023-06-14T10:11:35;99761.44;;;22.42;32.20
61109;BME280;46995;55.740;37.402;2023-06-14T10:14:05;99728.06;;;22.23;32.37
61109;BME280;46995;55.740;37.402;2023-06-14T10:16:39;99731.81;;;22.29;32.22
61109;BME280;46995;55.740;37.402;2023-06-14T10:19:22;99747.19;;;22.48;31.74
61109;BME280;46995;55.740;37.402;2023-06-14T10:22:09;99768.16;;;22.66;32.37
61109;BME280;46995;55.740;37.402;2023-06-14T10:27:06;99756.56;;;22.65;32.00
61109;BME280;46995;55.740;37.402;2023-06-14T10:32:22;99747.44;;;22.60;31.95
61109;BME280;46995;55.740;37.402;2023-06-14T10:35:01;99758.03;;;22.74;32.81
61109;BME280;46995;55.740;37.402;2023-06-14T10:37:30;99759.72;;;22.75;32.58
61109;BME280;46995;55.740;37.402;2023-06-14T10:39:56;99749.31;;;22.72;32.66
61109;BME280;46995;55.740;37.402;2023-06-14T10:42:21;99727.53;;;22.67;32.96
61109;BME280;46995;55.740;37.402;2023-06-14T10:44:53;99751.41;;;22.84;33.00
61109;BME280;46995;55.740;37.402;2023-06-14T10:47:29;99751.22;;;22.92;33.32
61109;BME280;46995;55.740;37.402;2023-06-14T10:52:39;99729.69;;;22.92;33.05
61109;BME280;46995;55.740;37.402;2023-06-14T10:55:16;99743.34;;;22.97;31.54
61109;BME280;46995;55.740;37.402;2023-06-14T10:57:47;99705.59;;;22.70;32.12
61109;BME280;46995;55.740;37.402;2023-06-14T11:00:24;99708.31;;;22.77;32.52
61109;BME280;46995;55.740;37.402;2023-06-14T11:05:55;99736.72;;;22.99;32.01
61109;BME280;46995;55.740;37.402;2023-06-14T11:11:13;99726.56;;;22.95;32.20
61109;BME280;46995;55.740;37.402;2023-06-14T11:13:45;99732.16;;;23.00;32.20
61109;BME280;46995;55.740;37.402;2023-06-14T11:16:14;99732.78;;;23.02;31.35
61109;BME280;46995;55.740;37.402;2023-06-14T11:18:41;99728.81;;;22.98;31.54
61109;BME280;46995;55.740;37.402;2023-06-14T11:21:07;99716.00;;;23.00;31.82
61109;BME280;46995;55.740;37.402;2023-06-14T11:23:37;99714.31;;;22.99;31.72
61109;BME280;46995;55.740;37.402;2023-06-14T11:26:03;99722.22;;;23.07;31.80
61109;BME280;46995;55.740;37.402;2023-06-14T11:28:55;99718.25;;;23.16;32.29
61109;BME280;46995;55.740;37.402;2023-06-14T11:31:22;99698.59;;;23.02;31.67
61109;BME280;46995;55.740;37.402;2023-06-14T11:33:56;99716.81;;;23.20;31.80
61109;BME280;46995;55.740;37.402;2023-06-14T11:36:30;99713.28;;;23.26;31.69
61109;BME280;46995;55.740;37.402;2023-06-14T11:39:00;99698.97;;;23.19;31.95
61109;BME280;46995;55.740;37.402;2023-06-14T11:41:32;99679.91;;;23.14;31.72
61109;BME280;46995;55.740;37.402;2023-06-14T11:44:00;99690.06;;;23.25;31.85
61109;BME280;46995;55.740;37.402;2023-06-14T11:46:28;99701.88;;;23.37;31.89
61109;BME280;46995;55.740;37.402;2023-06-14T11:48:53;99702.50;;;23.39;31.85
61109;BME280;46995;55.740;37.402;2023-06-14T11:51:22;99687.75;;;23.42;31.88
61109;BME280;46995;55.740;37.402;2023-06-14T11:53:48;99690.00;;;23.45;32.02
61109;BME280;46995;55.740;37.402;2023-06-14T11:56:16;99698.75;;;23.53;31.76
61109;BME280;46995;55.740;37.402;2023-06-14T11:58:44;99698.50;;;23.61;31.37
61109;BME280;46995;55.740;37.402;2023-06-14T12:01:17;99682.94;;;23.63;31.31
61109;BME280;46995;55.740;37.402;2023-06-14T12:03:50;99681.22;;;23.82;31.77
61109;BME280;46995;55.740;37.402;2023-06-14T12:06:26;99693.25;;;24.87;30.92
61109;BME280;46995;55.740;37.402;2023-06-14T12:08:55;99685.25;;;26.86;26.80
61109;BME280;46995;55.740;37.402;2023-06-14T12:11:21;99676.97;;;28.71;25.20
61109;BME280;46995;55.740;37.402;2023-06-14T12:13:48;99679.88;;;30.66;23.28
61109;BME280;46995;55.740;37.402;2023-06-14T12:16:14;99675.63;;;32.17;21.64
61109;BME280;46995;55.740;37.402;2023-06-14T12:18:40;99663.09;;;33.37;20.48
61109;BME280;46995;55.740;37.402;2023-06-14T12:21:09;99661.06;;;34.66;18.94
61109;BME280;46995;55.740;37.402;2023-06-14T12:23:49;99664.13;;;36.18;18.21
61109;BME280;46995;55.740;37.402;2023-06-14T12:26:16;99660.44;;;37.57;16.08
61109;BME280;46995;55.740;37.402;2023-06-14T12:28:47;99642.16;;;38.69;15.23
61109;BME280;46995;55.740;37.402;2023-06-14T12:31:23;99622.47;;;39.46;13.97
61109;BME280;46995;55.740;37.402;2023-06-14T12:34:05;99587.09;;;39.99;13.67
61109;BME280;46995;55.740;37.402;2023-06-14T12:36:32;99631.72;;;40.75;13.22
61109;BME280;46995;55.740;37.402;2023-06-14T12:38:59;99621.38;;;41.01;13.47
61109;BME280;46995;55.740;37.402;2023-06-14T12:41:25;99644.41;;;40.85;13.46
61109;BME280;46995;55.740;37.402;2023-06-14T12:43:52;99648.72;;;39.65;14.72
61109;BME280;46995;55.740;37.402;2023-06-14T12:46:18;99641.06;;;37.98;15.55
61109;BME280;46995;55.740;37.402;2023-06-14T12:48:43;99636.81;;;36.02;16.20
61109;BME280;46995;55.740;37.402;2023-06-14T12:51:09;99632.84;;;34.27;17.93
61109;BME280;46995;55.740;37.402;2023-06-14T12:53:35;99643.34;;;33.35;19.83
61109;BME280;46995;55.740;37.402;2023-06-14T12:56:01;99635.53;;;31.65;19.88
61109;BME280;46995;55.740;37.402;2023-06-14T12:58:27;99630.19;;;30.96;21.17
61109;BME280;46995;55.740;37.402;2023-06-14T13:00:52;99641.97;;;30.65;21.84
61109;BME280;46995;55.740;37.402;2023-06-14T13:03:18;99632.91;;;30.33;21.93
61109;BME280;46995;55.740;37.402;2023-06-14T13:05:44;99627.47;;;29.84;22.49
61109;BME280;46995;55.740;37.402;2023-06-14T13:08:10;99644.63;;;29.63;22.69
61109;BME280;46995;55.740;37.402;2023-06-14T13:10:36;99641.97;;;28.57;23.21